createdAt,value
2017-12-16T00:00:38.622Z,1004.05
2017-12-16T00:01:38.607Z,1004.05
2017-12-16T00:02:38.593Z,1004.08
2017-12-16T00:03:38.576Z,1004.15
2017-12-16T00:04:38.562Z,1004.16
2017-12-16T00:05:38.549Z,1004.18
2017-12-16T00:06:38.532Z,1004.17
2017-12-16T00:07:38.517Z,1004.25
2017-12-16T00:08:38.501Z,1004.27
2017-12-16T00:09:38.487Z,1004.31
2017-12-16T00:10:38.471Z,1004.31
2017-12-16T00:11:38.457Z,1004.31
2017-12-16T00:12:38.442Z,1004.33
2017-12-16T00:13:38.428Z,1004.33
2017-12-16T00:14:38.413Z,1004.36
2017-12-16T00:15:38.397Z,1004.36
2017-12-16T00:16:38.382Z,1004.37
2017-12-16T00:17:38.367Z,1004.37
2017-12-16T00:18:38.353Z,1004.38
2017-12-16T00:19:38.337Z,1004.36
2017-12-16T00:20:38.322Z,1004.38
2017-12-16T00:21:38.308Z,1004.41
2017-12-16T00:22:38.292Z,1004.41
2017-12-16T00:23:38.278Z,1004.41
2017-12-16T00:24:38.261Z,1004.42
2017-12-16T00:25:38.247Z,1004.45
2017-12-16T00:26:38.232Z,1004.41
2017-12-16T00:27:38.218Z,1004.41
2017-12-16T00:28:38.202Z,1004.43
2017-12-16T00:29:38.187Z,1004.42
2017-12-16T00:30:38.171Z,1004.43
2017-12-16T00:31:38.157Z,1004.40
2017-12-16T00:32:38.141Z,1004.37
2017-12-16T00:33:38.126Z,1004.40
2017-12-16T00:34:38.111Z,1004.43
2017-12-16T00:35:38.097Z,1004.40
2017-12-16T00:36:38.081Z,1004.47
2017-12-16T00:37:38.066Z,1004.47
2017-12-16T00:38:38.051Z,1004.43
2017-12-16T00:39:38.036Z,1004.46
2017-12-16T00:40:38.020Z,1004.44
2017-12-16T00:41:38.006Z,1004.45
2017-12-16T00:42:37.992Z,1004.48
2017-12-16T00:43:37.976Z,1004.47
2017-12-16T00:44:37.960Z,1004.45
2017-12-16T00:45:37.950Z,1004.42
2017-12-16T00:46:37.930Z,1004.42
2017-12-16T00:47:37.916Z,1004.46
2017-12-16T00:48:37.900Z,1004.53
2017-12-16T00:49:37.885Z,1004.57
2017-12-16T00:50:37.871Z,1004.55
2017-12-16T00:51:37.855Z,1004.55
2017-12-16T00:52:37.839Z,1004.55
2017-12-16T00:53:37.828Z,1004.58
2017-12-16T00:54:37.809Z,1004.54
2017-12-16T00:55:37.794Z,1004.55
2017-12-16T00:56:37.781Z,1004.53
2017-12-16T00:57:37.763Z,1004.54
2017-12-16T00:58:37.750Z,1004.53
2017-12-16T00:59:37.734Z,1004.50
2017-12-16T01:00:37.719Z,1004.51
2017-12-16T01:01:37.704Z,1004.55
2017-12-16T01:02:37.689Z,1004.55
2017-12-16T01:03:37.673Z,1004.59
2017-12-16T01:04:37.657Z,1004.61
2017-12-16T01:05:37.642Z,1004.66
2017-12-16T01:06:37.628Z,1004.65
2017-12-16T01:07:37.611Z,1004.65
2017-12-16T01:08:37.596Z,1004.66
2017-12-16T01:09:37.582Z,1004.66
2017-12-16T01:10:37.566Z,1004.66
2017-12-16T01:11:37.552Z,1004.67
2017-12-16T01:12:37.536Z,1004.71
2017-12-16T01:13:37.521Z,1004.76
2017-12-16T01:14:37.507Z,1004.76
2017-12-16T01:15:37.492Z,1004.77
2017-12-16T01:16:37.478Z,1004.77
2017-12-16T01:17:37.460Z,1004.78
2017-12-16T01:18:37.444Z,1004.79
2017-12-16T01:19:37.429Z,1004.83
2017-12-16T01:20:37.413Z,1004.86
2017-12-16T01:21:37.399Z,1004.87
2017-12-16T01:22:37.384Z,1004.88
2017-12-16T01:23:37.372Z,1004.94
2017-12-16T01:24:37.353Z,1004.96
2017-12-16T01:25:37.339Z,1004.98
2017-12-16T01:26:37.322Z,1004.99
2017-12-16T01:27:37.309Z,1005.00
2017-12-16T01:28:37.291Z,1004.99
2017-12-16T01:29:37.276Z,1004.99
2017-12-16T01:30:37.263Z,1005.02
2017-12-16T01:31:37.247Z,1004.97
2017-12-16T01:32:37.231Z,1005.00
2017-12-16T01:33:37.218Z,1005.02
2017-12-16T01:34:37.220Z,1005.00
2017-12-16T01:35:37.186Z,1005.02
2017-12-16T01:36:37.172Z,1005.08
2017-12-16T01:37:37.155Z,1005.09
2017-12-16T01:38:37.141Z,1005.12
2017-12-16T01:39:37.125Z,1005.15
2017-12-16T01:40:37.108Z,1005.14
2017-12-16T01:41:37.094Z,1005.16
2017-12-16T01:42:37.079Z,1005.14
2017-12-16T01:43:37.064Z,1005.13
2017-12-16T01:44:37.048Z,1005.16
2017-12-16T01:45:37.033Z,1005.20
2017-12-16T01:46:37.018Z,1005.19
2017-12-16T01:47:37.007Z,1005.25
2017-12-16T01:48:36.990Z,1005.21
2017-12-16T01:49:36.977Z,1005.26
2017-12-16T01:50:36.956Z,1005.28
2017-12-16T01:51:36.942Z,1005.29
2017-12-16T01:52:36.925Z,1005.29
2017-12-16T01:53:36.911Z,1005.33
2017-12-16T01:54:36.896Z,1005.35
2017-12-16T01:55:36.880Z,1005.35
2017-12-16T01:56:36.863Z,1005.37
2017-12-16T01:57:36.850Z,1005.37
2017-12-16T01:58:36.834Z,1005.41
2017-12-16T01:59:36.820Z,1005.39
2017-12-16T02:00:36.803Z,1005.43
2017-12-16T02:01:36.791Z,1005.42
2017-12-16T02:02:36.778Z,1005.47
2017-12-16T02:03:36.758Z,1005.48
2017-12-16T02:04:36.744Z,1005.50
2017-12-16T02:05:36.727Z,1005.55
2017-12-16T02:06:36.712Z,1005.58
2017-12-16T02:07:36.697Z,1005.59
2017-12-16T02:08:36.680Z,1005.60
2017-12-16T02:09:36.666Z,1005.61
2017-12-16T02:10:36.651Z,1005.62
2017-12-16T02:11:36.637Z,1005.62
2017-12-16T02:12:36.619Z,1005.62
2017-12-16T02:13:36.605Z,1005.65
2017-12-16T02:14:36.592Z,1005.66
2017-12-16T02:15:36.573Z,1005.63
2017-12-16T02:16:36.560Z,1005.63
2017-12-16T02:17:36.543Z,1005.62
2017-12-16T02:18:36.528Z,1005.67
2017-12-16T02:19:36.513Z,1005.66
2017-12-16T02:20:36.496Z,1005.67
2017-12-16T02:21:36.481Z,1005.67
2017-12-16T02:22:36.467Z,1005.69
2017-12-16T02:23:36.451Z,1005.68
2017-12-16T02:24:36.489Z,1005.70
2017-12-16T02:25:36.419Z,1005.70
2017-12-16T02:26:36.404Z,1005.79
2017-12-16T02:27:36.390Z,1005.78
2017-12-16T02:28:36.377Z,1005.76
2017-12-16T02:29:36.359Z,1005.76
2017-12-16T02:30:36.344Z,1005.73
2017-12-16T02:31:36.329Z,1005.75
2017-12-16T02:32:36.313Z,1005.74
2017-12-16T02:33:36.299Z,1005.73
2017-12-16T02:34:36.283Z,1005.74
2017-12-16T02:35:36.266Z,1005.76
2017-12-16T02:36:36.250Z,1005.77
2017-12-16T02:37:36.235Z,1005.75
2017-12-16T02:38:36.222Z,1005.74
2017-12-16T02:39:36.205Z,1005.73
2017-12-16T02:40:36.194Z,1005.74
2017-12-16T02:41:36.175Z,1005.74
2017-12-16T02:42:36.158Z,1005.79
2017-12-16T02:43:36.145Z,1005.77
2017-12-16T02:44:36.127Z,1005.77
2017-12-16T02:45:36.112Z,1005.79
2017-12-16T02:46:36.098Z,1005.78
2017-12-16T02:47:36.084Z,1005.81
2017-12-16T02:48:36.066Z,1005.81
2017-12-16T02:49:36.050Z,1005.83
2017-12-16T02:50:36.035Z,1005.83
2017-12-16T02:51:36.023Z,1005.83
2017-12-16T02:52:36.008Z,1005.87
2017-12-16T02:53:35.988Z,1005.85
2017-12-16T02:54:35.972Z,1005.90
2017-12-16T02:55:35.959Z,1005.89
2017-12-16T02:56:35.943Z,1005.91
2017-12-16T02:57:35.926Z,1005.92
2017-12-16T02:58:35.912Z,1005.91
2017-12-16T02:59:35.898Z,1005.88
2017-12-16T03:00:35.880Z,1005.87
2017-12-16T03:01:35.866Z,1005.92
2017-12-16T03:02:35.850Z,1005.89
2017-12-16T03:03:35.834Z,1005.93
2017-12-16T03:04:35.819Z,1005.95
2017-12-16T03:05:35.804Z,1005.98
2017-12-16T03:06:35.789Z,1005.97
2017-12-16T03:07:35.772Z,1005.99
2017-12-16T03:08:35.757Z,1006.00
2017-12-16T03:09:35.742Z,1006.01
2017-12-16T03:10:35.732Z,1005.97
2017-12-16T03:11:35.711Z,1005.95
2017-12-16T03:12:35.695Z,1005.97
2017-12-16T03:13:35.679Z,1005.99
2017-12-16T03:14:35.664Z,1006.05
2017-12-16T03:15:35.650Z,1006.03
2017-12-16T03:16:35.633Z,1006.06
2017-12-16T03:17:35.617Z,1006.04
2017-12-16T03:18:35.602Z,1006.07
2017-12-16T03:19:35.588Z,1006.07
2017-12-16T03:20:35.571Z,1006.07
2017-12-16T03:21:35.558Z,1006.09
2017-12-16T03:22:35.541Z,1006.05
2017-12-16T03:23:35.525Z,1006.05
2017-12-16T03:24:35.508Z,1006.06
2017-12-16T03:25:35.494Z,1006.06
2017-12-16T03:26:35.478Z,1006.06
2017-12-16T03:27:35.463Z,1006.07
2017-12-16T03:28:35.446Z,1006.11
2017-12-16T03:29:35.430Z,1006.13
2017-12-16T03:30:35.417Z,1006.16
2017-12-16T03:31:35.401Z,1006.18
2017-12-16T03:32:35.384Z,1006.12
2017-12-16T03:33:35.372Z,1006.15
2017-12-16T03:34:35.354Z,1006.12
2017-12-16T03:35:35.338Z,1006.16
2017-12-16T03:36:35.322Z,1006.15
2017-12-16T03:37:35.307Z,1006.19
2017-12-16T03:38:35.291Z,1006.19
2017-12-16T03:39:35.277Z,1006.20
2017-12-16T03:40:35.260Z,1006.21
2017-12-16T03:41:35.246Z,1006.21
2017-12-16T03:42:35.236Z,1006.20
2017-12-16T03:43:35.215Z,1006.24
2017-12-16T03:44:35.198Z,1006.28
2017-12-16T03:45:35.184Z,1006.27
2017-12-16T03:46:35.169Z,1006.29
2017-12-16T03:47:35.152Z,1006.29
2017-12-16T03:48:35.136Z,1006.28
2017-12-16T03:49:35.122Z,1006.29
2017-12-16T03:50:35.106Z,1006.29
2017-12-16T03:51:35.091Z,1006.31
2017-12-16T03:52:35.074Z,1006.34
2017-12-16T03:53:35.062Z,1006.35
2017-12-16T03:54:35.043Z,1006.34
2017-12-16T03:55:35.029Z,1006.36
2017-12-16T03:56:35.012Z,1006.41
2017-12-16T03:57:34.997Z,1006.47
2017-12-16T03:58:34.980Z,1006.45
2017-12-16T03:59:34.966Z,1006.46
2017-12-16T04:00:34.950Z,1006.47
2017-12-16T04:01:34.935Z,1006.44
2017-12-16T04:02:34.919Z,1006.45
2017-12-16T04:03:34.904Z,1006.48
2017-12-16T04:04:34.887Z,1006.49
2017-12-16T04:05:34.873Z,1006.49
2017-12-16T04:06:34.856Z,1006.48
2017-12-16T04:07:34.842Z,1006.44
2017-12-16T04:08:34.825Z,1006.48
2017-12-16T04:09:34.811Z,1006.46
2017-12-16T04:10:34.794Z,1006.48
2017-12-16T04:11:34.780Z,1006.47
2017-12-16T04:12:34.766Z,1006.54
2017-12-16T04:13:34.748Z,1006.53
2017-12-16T04:14:34.732Z,1006.55
2017-12-16T04:15:34.722Z,1006.59
2017-12-16T04:16:34.701Z,1006.62
2017-12-16T04:17:34.688Z,1006.59
2017-12-16T04:18:34.670Z,1006.61
2017-12-16T04:19:34.657Z,1006.64
2017-12-16T04:20:34.639Z,1006.66
2017-12-16T04:21:34.625Z,1006.65
2017-12-16T04:22:34.608Z,1006.67
2017-12-16T04:23:34.593Z,1006.68
2017-12-16T04:24:34.579Z,1006.66
2017-12-16T04:25:34.563Z,1006.72
2017-12-16T04:26:34.546Z,1006.69
2017-12-16T04:27:34.533Z,1006.66
2017-12-16T04:28:34.518Z,1006.75
2017-12-16T04:29:34.502Z,1006.71
2017-12-16T04:30:34.486Z,1006.74
2017-12-16T04:31:34.470Z,1006.78
2017-12-16T04:32:34.454Z,1006.73
2017-12-16T04:33:34.439Z,1006.79
2017-12-16T04:34:34.423Z,1006.81
2017-12-16T04:35:34.409Z,1006.81
2017-12-16T04:36:34.392Z,1006.82
2017-12-16T04:37:34.377Z,1006.81
2017-12-16T04:38:34.363Z,1006.83
2017-12-16T04:39:34.347Z,1006.81
2017-12-16T04:40:34.332Z,1006.86
2017-12-16T04:41:34.316Z,1006.91
2017-12-16T04:42:34.301Z,1006.88
2017-12-16T04:43:34.286Z,1006.91
2017-12-16T04:44:34.269Z,1006.92
2017-12-16T04:45:34.255Z,1006.95
2017-12-16T04:46:34.239Z,1006.99
2017-12-16T04:47:34.225Z,1006.98
2017-12-16T04:48:34.210Z,1006.95
2017-12-16T04:49:34.194Z,1007.01
2017-12-16T04:50:34.179Z,1007.02
2017-12-16T04:51:34.164Z,1007.06
2017-12-16T04:52:34.147Z,1006.99
2017-12-16T04:53:34.132Z,1007.04
2017-12-16T04:54:34.117Z,1007.07
2017-12-16T04:55:34.103Z,1007.05
2017-12-16T04:56:34.085Z,1007.06
2017-12-16T04:57:34.071Z,1007.07
2017-12-16T04:58:34.057Z,1007.13
2017-12-16T04:59:34.042Z,1007.10
2017-12-16T05:00:34.026Z,1007.12
2017-12-16T05:01:34.011Z,1007.11
2017-12-16T05:02:33.995Z,1007.12
2017-12-16T05:03:33.980Z,1007.13
2017-12-16T05:04:33.964Z,1007.15
2017-12-16T05:05:33.949Z,1007.14
2017-12-16T05:06:33.935Z,1007.15
2017-12-16T05:07:33.923Z,1007.13
2017-12-16T05:08:33.904Z,1007.18
2017-12-16T05:09:33.889Z,1007.20
2017-12-16T05:10:33.874Z,1007.22
2017-12-16T05:11:33.858Z,1007.23
2017-12-16T05:12:33.842Z,1007.23
2017-12-16T05:13:33.828Z,1007.23
2017-12-16T05:14:33.812Z,1007.22
2017-12-16T05:15:33.798Z,1007.28
2017-12-16T05:16:33.781Z,1007.24
2017-12-16T05:17:33.770Z,1007.23
2017-12-16T05:18:33.755Z,1007.24
2017-12-16T05:19:33.737Z,1007.24
2017-12-16T05:20:33.721Z,1007.28
2017-12-16T05:21:33.706Z,1007.20
2017-12-16T05:22:33.690Z,1007.25
2017-12-16T05:23:33.681Z,1007.26
2017-12-16T05:24:33.660Z,1007.27
2017-12-16T05:25:33.649Z,1007.29
2017-12-16T05:26:33.630Z,1007.27
2017-12-16T05:27:33.615Z,1007.28
2017-12-16T05:28:33.600Z,1007.31
2017-12-16T05:29:33.585Z,1007.30
2017-12-16T05:30:33.570Z,1007.27
2017-12-16T05:31:33.556Z,1007.29
2017-12-16T05:32:33.540Z,1007.33
2017-12-16T05:33:33.525Z,1007.32
2017-12-16T05:34:33.509Z,1007.34
2017-12-16T05:35:33.496Z,1007.38
2017-12-16T05:36:33.480Z,1007.38
2017-12-16T05:37:33.465Z,1007.39
2017-12-16T05:38:33.450Z,1007.36
2017-12-16T05:39:33.435Z,1007.43
2017-12-16T05:40:33.419Z,1007.42
2017-12-16T05:41:33.403Z,1007.42
2017-12-16T05:42:33.388Z,1007.46
2017-12-16T05:43:33.374Z,1007.46
2017-12-16T05:44:33.358Z,1007.48
2017-12-16T05:45:33.344Z,1007.47
2017-12-16T05:46:33.328Z,1007.49
2017-12-16T05:47:33.313Z,1007.52
2017-12-16T05:48:33.297Z,1007.52
2017-12-16T05:49:33.283Z,1007.55
2017-12-16T05:50:33.269Z,1007.57
2017-12-16T05:51:33.256Z,1007.54
2017-12-16T05:52:33.237Z,1007.56
2017-12-16T05:53:33.223Z,1007.57
2017-12-16T05:54:33.209Z,1007.59
2017-12-16T05:55:33.192Z,1007.59
2017-12-16T05:56:33.176Z,1007.60
2017-12-16T05:57:33.162Z,1007.59
2017-12-16T05:58:33.147Z,1007.63
2017-12-16T05:59:33.179Z,1007.60
2017-12-16T06:00:33.117Z,1007.63
2017-12-16T06:01:33.102Z,1007.59
2017-12-16T06:02:33.088Z,1007.67
2017-12-16T06:03:33.073Z,1007.68
2017-12-16T06:04:33.056Z,1007.68
2017-12-16T06:05:33.043Z,1007.71
2017-12-16T06:06:33.028Z,1007.70
2017-12-16T06:07:33.012Z,1007.73
2017-12-16T06:08:32.997Z,1007.73
2017-12-16T06:09:32.981Z,1007.74
2017-12-16T06:10:32.969Z,1007.76
2017-12-16T06:11:32.953Z,1007.77
2017-12-16T06:12:32.936Z,1007.78
2017-12-16T06:13:32.923Z,1007.73
2017-12-16T06:14:32.907Z,1007.76
2017-12-16T06:15:32.891Z,1007.81
2017-12-16T06:16:32.875Z,1007.82
2017-12-16T06:17:32.862Z,1007.83
2017-12-16T06:18:32.846Z,1007.85
2017-12-16T06:19:32.832Z,1007.88
2017-12-16T06:20:32.815Z,1007.90
2017-12-16T06:21:32.800Z,1007.89
2017-12-16T06:22:32.785Z,1007.94
2017-12-16T06:23:32.770Z,1007.96
2017-12-16T06:24:32.755Z,1007.95
2017-12-16T06:25:32.740Z,1007.99
2017-12-16T06:26:32.725Z,1007.99
2017-12-16T06:27:32.711Z,1008.01
2017-12-16T06:28:32.695Z,1008.01
2017-12-16T06:29:32.680Z,1008.02
2017-12-16T06:30:32.665Z,1008.03
2017-12-16T06:31:32.650Z,1008.03
2017-12-16T06:32:32.636Z,1008.09
2017-12-16T06:33:32.623Z,1008.10
2017-12-16T06:34:32.605Z,1008.09
2017-12-16T06:35:32.590Z,1008.15
2017-12-16T06:36:32.574Z,1008.16
2017-12-16T06:37:32.559Z,1008.18
2017-12-16T06:38:32.544Z,1008.21
2017-12-16T06:39:32.531Z,1008.26
2017-12-16T06:40:32.515Z,1008.24
2017-12-16T06:41:32.500Z,1008.22
2017-12-16T06:42:32.483Z,1008.27
2017-12-16T06:43:32.469Z,1008.23
2017-12-16T06:44:32.454Z,1008.25
2017-12-16T06:45:32.438Z,1008.28
2017-12-16T06:46:32.424Z,1008.25
2017-12-16T06:47:32.408Z,1008.32
2017-12-16T06:48:32.393Z,1008.34
2017-12-16T06:49:32.378Z,1008.37
2017-12-16T06:50:32.363Z,1008.33
2017-12-16T06:51:32.348Z,1008.34
2017-12-16T06:52:32.333Z,1008.37
2017-12-16T06:53:32.318Z,1008.41
2017-12-16T06:54:32.303Z,1008.39
2017-12-16T06:55:32.302Z,1008.37
2017-12-16T06:56:32.274Z,1008.40
2017-12-16T06:57:32.258Z,1008.44
2017-12-16T06:58:32.243Z,1008.44
2017-12-16T06:59:32.227Z,1008.47
2017-12-16T07:00:32.212Z,1008.46
2017-12-16T07:01:32.197Z,1008.44
2017-12-16T07:02:32.183Z,1008.49
2017-12-16T07:03:32.169Z,1008.46
2017-12-16T07:04:32.151Z,1008.50
2017-12-16T07:05:32.136Z,1008.46
2017-12-16T07:06:32.121Z,1008.57
2017-12-16T07:07:32.114Z,1008.54
2017-12-16T07:08:32.091Z,1008.50
2017-12-16T07:09:32.078Z,1008.48
2017-12-16T07:10:32.063Z,1008.52
2017-12-16T07:11:32.047Z,1008.52
2017-12-16T07:12:32.032Z,1008.55
2017-12-16T07:13:32.017Z,1008.56
2017-12-16T07:14:32.002Z,1008.59
2017-12-16T07:15:31.987Z,1008.58
2017-12-16T07:16:31.970Z,1008.62
2017-12-16T07:17:31.956Z,1008.64
2017-12-16T07:18:31.941Z,1008.73
2017-12-16T07:19:31.927Z,1008.71
2017-12-16T07:20:31.910Z,1008.71
2017-12-16T07:21:31.896Z,1008.74
2017-12-16T07:22:31.882Z,1008.73
2017-12-16T07:23:31.866Z,1008.76
2017-12-16T07:24:31.850Z,1008.78
2017-12-16T07:25:31.836Z,1008.79
2017-12-16T07:26:31.821Z,1008.81
2017-12-16T07:27:31.805Z,1008.84
2017-12-16T07:28:31.789Z,1008.84
2017-12-16T07:29:31.775Z,1008.87
2017-12-16T07:30:31.760Z,1008.89
2017-12-16T07:31:31.746Z,1008.91
2017-12-16T07:32:31.729Z,1008.95
2017-12-16T07:33:31.714Z,1008.97
2017-12-16T07:34:31.700Z,1008.98
2017-12-16T07:35:31.684Z,1009.05
2017-12-16T07:36:31.669Z,1009.03
2017-12-16T07:37:31.655Z,1009.07
2017-12-16T07:38:31.644Z,1009.08
2017-12-16T07:39:31.624Z,1009.14
2017-12-16T07:40:31.608Z,1009.14
2017-12-16T07:41:31.594Z,1009.17
2017-12-16T07:42:31.580Z,1009.24
2017-12-16T07:43:31.565Z,1009.20
2017-12-16T07:44:31.549Z,1009.26
2017-12-16T07:45:31.535Z,1009.26
2017-12-16T07:46:31.520Z,1009.24
2017-12-16T07:47:31.505Z,1009.25
2017-12-16T07:48:31.489Z,1009.28
2017-12-16T07:49:31.474Z,1009.29
2017-12-16T07:50:31.459Z,1009.27
2017-12-16T07:51:31.444Z,1009.32
2017-12-16T07:52:31.428Z,1009.33
2017-12-16T07:53:31.414Z,1009.33
2017-12-16T07:54:31.400Z,1009.37
2017-12-16T07:55:31.383Z,1009.40
2017-12-16T07:56:31.368Z,1009.41
2017-12-16T07:57:31.353Z,1009.44
2017-12-16T07:58:31.339Z,1009.46
2017-12-16T07:59:31.325Z,1009.45
2017-12-16T08:00:31.308Z,1009.44
2017-12-16T08:01:31.294Z,1009.46
2017-12-16T08:02:31.280Z,1009.47
2017-12-16T08:03:31.264Z,1009.47
2017-12-16T08:04:31.248Z,1009.51
2017-12-16T08:05:31.234Z,1009.51
2017-12-16T08:06:31.272Z,1009.52
2017-12-16T08:07:31.205Z,1009.51
2017-12-16T08:08:31.192Z,1009.52
2017-12-16T08:09:31.177Z,1009.55
2017-12-16T08:10:31.158Z,1009.57
2017-12-16T08:11:31.144Z,1009.57
2017-12-16T08:12:31.128Z,1009.55
2017-12-16T08:13:31.113Z,1009.56
2017-12-16T08:14:31.098Z,1009.56
2017-12-16T08:15:31.084Z,1009.60
2017-12-16T08:16:31.069Z,1009.59
2017-12-16T08:17:31.053Z,1009.64
2017-12-16T08:18:31.040Z,1009.65
2017-12-16T08:19:31.026Z,1009.69
2017-12-16T08:20:31.010Z,1009.74
2017-12-16T08:21:30.994Z,1009.73
2017-12-16T08:22:30.979Z,1009.78
2017-12-16T08:23:30.966Z,1009.77
2017-12-16T08:24:30.949Z,1009.82
2017-12-16T08:25:30.935Z,1009.77
2017-12-16T08:26:30.920Z,1009.80
2017-12-16T08:27:30.909Z,1009.84
2017-12-16T08:28:30.890Z,1009.88
2017-12-16T08:29:30.876Z,1009.90
2017-12-16T08:30:30.861Z,1009.93
2017-12-16T08:31:30.847Z,1009.93
2017-12-16T08:32:30.830Z,1009.95
2017-12-16T08:33:30.816Z,1009.95
2017-12-16T08:34:30.806Z,1009.99
2017-12-16T08:35:30.795Z,1009.98
2017-12-16T08:36:30.774Z,1010.04
2017-12-16T08:37:30.757Z,1010.05
2017-12-16T08:38:30.747Z,1010.04
2017-12-16T08:39:30.730Z,1010.11
2017-12-16T08:40:30.716Z,1010.17
2017-12-16T08:41:30.700Z,1010.23
2017-12-16T08:42:30.687Z,1010.22
2017-12-16T08:43:30.672Z,1010.24
2017-12-16T08:44:30.658Z,1010.27
2017-12-16T08:45:30.644Z,1010.33
2017-12-16T08:46:30.631Z,1010.30
2017-12-16T08:47:30.615Z,1010.31
2017-12-16T08:48:30.601Z,1010.33
2017-12-16T08:49:30.586Z,1010.36
2017-12-16T08:50:30.573Z,1010.36
2017-12-16T08:51:30.560Z,1010.41
2017-12-16T08:52:30.544Z,1010.45
2017-12-16T08:53:30.538Z,1010.47
2017-12-16T08:54:30.518Z,1010.46
2017-12-16T08:55:30.504Z,1010.43
2017-12-16T08:56:30.490Z,1010.49
2017-12-16T08:57:30.476Z,1010.48
2017-12-16T08:58:30.464Z,1010.53
2017-12-16T08:59:30.450Z,1010.52
2017-12-16T09:00:30.434Z,1010.52
2017-12-16T09:01:30.426Z,1010.54
2017-12-16T09:02:30.410Z,1010.48
2017-12-16T09:03:30.397Z,1010.45
2017-12-16T09:04:30.382Z,1010.48
2017-12-16T09:05:30.368Z,1010.45
2017-12-16T09:06:30.357Z,1010.49
2017-12-16T09:07:30.342Z,1010.54
2017-12-16T09:08:30.329Z,1010.54
2017-12-16T09:09:30.316Z,1010.60
2017-12-16T09:10:30.303Z,1010.63
2017-12-16T09:11:30.290Z,1010.67
2017-12-16T09:12:30.276Z,1010.67
2017-12-16T09:13:30.264Z,1010.71
2017-12-16T09:14:30.251Z,1010.74
2017-12-16T09:15:30.238Z,1010.80
2017-12-16T09:16:30.224Z,1010.79
2017-12-16T09:17:30.213Z,1010.78
2017-12-16T09:18:30.200Z,1010.81
2017-12-16T09:19:30.188Z,1010.83
2017-12-16T09:20:30.176Z,1010.83
2017-12-16T09:21:30.161Z,1010.75
2017-12-16T09:22:30.150Z,1010.82
2017-12-16T09:23:30.137Z,1010.82
2017-12-16T09:24:30.126Z,1010.81
2017-12-16T09:25:30.112Z,1010.82
2017-12-16T09:26:30.100Z,1010.82
2017-12-16T09:27:30.088Z,1010.87
2017-12-16T09:28:30.075Z,1010.91
2017-12-16T09:29:30.061Z,1010.89
2017-12-16T09:30:30.051Z,1010.92
2017-12-16T09:31:30.037Z,1010.94
2017-12-16T09:32:30.025Z,1011.00
2017-12-16T09:33:30.014Z,1010.99
2017-12-16T09:34:30.030Z,1011.03
2017-12-16T09:35:29.990Z,1011.07
2017-12-16T09:36:29.978Z,1011.10
2017-12-16T09:37:29.964Z,1011.13
2017-12-16T09:38:30.009Z,1011.12
2017-12-16T09:39:29.941Z,1011.14
2017-12-16T09:40:29.928Z,1011.19
2017-12-16T09:41:29.924Z,1011.13
2017-12-16T09:42:29.906Z,1011.19
2017-12-16T09:43:29.895Z,1011.22
2017-12-16T09:44:29.881Z,1011.23
2017-12-16T09:45:29.871Z,1011.31
2017-12-16T09:46:29.865Z,1011.32
2017-12-16T09:47:29.852Z,1011.30
2017-12-16T09:48:29.836Z,1011.35
2017-12-16T09:49:29.827Z,1011.36
2017-12-16T09:50:29.814Z,1011.41
2017-12-16T09:51:29.803Z,1011.42
2017-12-16T09:52:29.789Z,1011.38
2017-12-16T09:53:29.778Z,1011.41
2017-12-16T09:54:29.768Z,1011.39
2017-12-16T09:55:29.757Z,1011.41
2017-12-16T09:56:29.744Z,1011.41
2017-12-16T09:57:29.733Z,1011.45
2017-12-16T09:58:29.723Z,1011.44
2017-12-16T09:59:29.714Z,1011.45
2017-12-16T10:00:29.700Z,1011.43
2017-12-16T10:01:29.691Z,1011.46
2017-12-16T10:02:29.682Z,1011.43
2017-12-16T10:03:29.668Z,1011.43
2017-12-16T10:04:29.655Z,1011.44
2017-12-16T10:05:29.644Z,1011.43
2017-12-16T10:06:29.634Z,1011.40
2017-12-16T10:07:29.623Z,1011.43
2017-12-16T10:08:29.611Z,1011.47
2017-12-16T10:09:29.600Z,1011.46
2017-12-16T10:10:29.597Z,1011.42
2017-12-16T10:11:29.580Z,1011.45
2017-12-16T10:12:29.571Z,1011.43
2017-12-16T10:13:29.558Z,1011.43
2017-12-16T10:14:29.547Z,1011.53
2017-12-16T10:15:29.537Z,1011.59
2017-12-16T10:16:29.525Z,1011.60
2017-12-16T10:17:29.516Z,1011.57
2017-12-16T10:18:29.506Z,1011.58
2017-12-16T10:19:29.495Z,1011.62
2017-12-16T10:20:29.483Z,1011.59
2017-12-16T10:21:29.474Z,1011.59
2017-12-16T10:22:29.464Z,1011.69
2017-12-16T10:23:29.454Z,1011.71
2017-12-16T10:24:29.443Z,1011.63
2017-12-16T10:25:29.433Z,1011.63
2017-12-16T10:26:29.421Z,1011.65
2017-12-16T10:27:29.412Z,1011.67
2017-12-16T10:28:29.401Z,1011.64
2017-12-16T10:29:29.391Z,1011.65
2017-12-16T10:30:29.381Z,1011.68
2017-12-16T10:31:29.370Z,1011.67
2017-12-16T10:32:29.361Z,1011.63
2017-12-16T10:33:29.350Z,1011.68
2017-12-16T10:34:29.344Z,1011.72
2017-12-16T10:35:29.330Z,1011.68
2017-12-16T10:36:29.321Z,1011.76
2017-12-16T10:37:29.310Z,1011.84
2017-12-16T10:38:29.300Z,1011.84
2017-12-16T10:39:29.294Z,1011.79
2017-12-16T10:40:29.281Z,1011.81
2017-12-16T10:41:29.272Z,1011.85
2017-12-16T10:42:29.262Z,1011.81
2017-12-16T10:43:29.252Z,1011.78
2017-12-16T10:44:29.242Z,1011.87
2017-12-16T10:45:29.233Z,1011.82
2017-12-16T10:46:29.223Z,1011.80
2017-12-16T10:47:29.214Z,1011.86
2017-12-16T10:48:29.207Z,1011.96
2017-12-16T10:49:29.194Z,1011.89
2017-12-16T10:50:29.185Z,1011.89
2017-12-16T10:51:29.176Z,1011.96
2017-12-16T10:52:29.167Z,1011.94
2017-12-16T10:53:29.156Z,1011.95
2017-12-16T10:54:29.147Z,1011.97
2017-12-16T10:55:29.137Z,1012.08
2017-12-16T10:56:29.132Z,1012.04
2017-12-16T10:57:29.118Z,1012.05
2017-12-16T10:58:29.109Z,1012.19
2017-12-16T10:59:29.100Z,1012.14
2017-12-16T11:00:29.091Z,1012.11
2017-12-16T11:01:29.081Z,1012.22
2017-12-16T11:02:29.073Z,1011.57
2017-12-16T11:03:29.064Z,1011.55
2017-12-16T11:04:29.055Z,1011.54
2017-12-16T11:05:29.046Z,1011.54
2017-12-16T11:06:29.040Z,1011.61
2017-12-16T11:07:29.027Z,1011.56
2017-12-16T11:08:29.016Z,1011.56
2017-12-16T11:09:29.008Z,1011.57
2017-12-16T11:10:28.998Z,1011.56
2017-12-16T11:11:28.989Z,1011.57
2017-12-16T11:12:28.978Z,1011.61
2017-12-16T11:13:28.968Z,1011.58
2017-12-16T11:14:28.959Z,1011.56
2017-12-16T11:15:28.951Z,1011.60
2017-12-16T11:16:28.939Z,1011.61
2017-12-16T11:17:28.930Z,1011.60
2017-12-16T11:18:28.921Z,1011.62
2017-12-16T11:19:28.911Z,1011.61
2017-12-16T11:20:28.900Z,1011.70
2017-12-16T11:21:28.890Z,1011.65
2017-12-16T11:22:28.880Z,1011.71
2017-12-16T11:23:28.870Z,1011.66
2017-12-16T11:24:28.858Z,1011.70
2017-12-16T11:25:28.848Z,1011.68
2017-12-16T11:26:28.838Z,1011.74
2017-12-16T11:27:28.829Z,1011.69
2017-12-16T11:28:28.818Z,1011.69
2017-12-16T11:29:28.807Z,1011.69
2017-12-16T11:30:28.796Z,1011.69
2017-12-16T11:31:28.786Z,1011.70
2017-12-16T11:32:28.774Z,1011.72
2017-12-16T11:33:28.764Z,1011.74
2017-12-16T11:34:28.754Z,1011.73
2017-12-16T11:35:28.742Z,1011.73
2017-12-16T11:36:28.732Z,1011.73
2017-12-16T11:37:28.721Z,1011.69
2017-12-16T11:38:28.710Z,1011.71
2017-12-16T11:39:28.699Z,1011.68
2017-12-16T11:40:28.687Z,1011.65
2017-12-16T11:41:28.677Z,1011.69
2017-12-16T11:42:28.666Z,1011.65
2017-12-16T11:43:28.656Z,1011.67
2017-12-16T11:44:28.643Z,1011.67
2017-12-16T11:45:28.634Z,1011.68
2017-12-16T11:46:28.622Z,1011.67
2017-12-16T11:47:28.611Z,1011.66
2017-12-16T11:48:28.601Z,1011.69
2017-12-16T11:49:28.589Z,1011.70
2017-12-16T11:50:28.579Z,1011.68
2017-12-16T11:51:28.568Z,1011.71
2017-12-16T11:52:28.556Z,1011.71
2017-12-16T11:53:28.546Z,1011.74
2017-12-16T11:54:28.534Z,1011.72
2017-12-16T11:55:28.526Z,1011.78
2017-12-16T11:56:28.511Z,1011.72
2017-12-16T11:57:28.501Z,1011.79
2017-12-16T11:58:28.492Z,1011.79
2017-12-16T11:59:28.477Z,1011.76
2017-12-16T12:00:28.465Z,1011.82
2017-12-16T12:01:28.454Z,1011.81
2017-12-16T12:02:28.444Z,1011.84
2017-12-16T12:03:28.433Z,1011.86
2017-12-16T12:04:28.420Z,1011.87
2017-12-16T12:05:28.410Z,1011.89